createdAt,value
2022-07-29T00:02:26.382Z,101915.16
2022-07-29T00:04:52.975Z,101910.78
2022-07-29T00:07:19.550Z,101913.47
2022-07-29T00:09:51.599Z,101910.97
2022-07-29T00:12:26.107Z,101910.16
2022-07-29T00:14:56.070Z,101911.97
2022-07-29T00:17:23.997Z,101916.47
2022-07-29T00:19:50.450Z,101906.88
2022-07-29T00:22:17.188Z,101903.47
2022-07-29T00:24:43.796Z,101904.47
2022-07-29T00:27:10.341Z,101909.81
2022-07-29T00:29:36.961Z,101907.31
2022-07-29T00:32:04.005Z,101909.13
2022-07-29T00:34:49.318Z,101904.81
2022-07-29T00:37:15.773Z,101902.31
2022-07-29T00:39:42.371Z,101894.53
2022-07-29T00:42:09.098Z,101893.66
2022-07-29T00:44:42.551Z,101894.59
2022-07-29T00:47:10.423Z,101888.44
2022-07-29T00:49:39.586Z,101887.66
2022-07-29T00:52:07.034Z,101897.31
2022-07-29T00:54:34.644Z,101898.22
2022-07-29T00:57:02.245Z,101893.88
2022-07-29T00:59:34.848Z,101891.22
2022-07-29T01:02:03.382Z,101891.22
2022-07-29T01:04:31.722Z,101886.91
2022-07-29T01:06:58.395Z,101887.84
2022-07-29T01:09:43.063Z,101886.13
2022-07-29T01:12:19.869Z,101886.19
2022-07-29T01:14:48.046Z,101877.41
2022-07-29T01:17:23.010Z,101874.03
2022-07-29T01:20:11.115Z,101873.13
2022-07-29T01:23:16.475Z,101873.19
2022-07-29T01:25:56.132Z,101868.69
2022-07-29T01:28:46.522Z,101863.59
2022-07-29T01:31:24.957Z,101862.63
2022-07-29T01:33:59.706Z,101857.38
2022-07-29T01:36:35.945Z,101860.91
2022-07-29T01:39:10.744Z,101853.03
2022-07-29T01:41:41.133Z,101842.47
2022-07-29T01:44:19.757Z,101843.34
2022-07-29T01:46:57.042Z,101844.19
2022-07-29T01:49:36.933Z,101840.63
2022-07-29T01:52:09.426Z,101851.00
2022-07-29T01:54:46.743Z,101839.56
2022-07-29T01:57:18.367Z,101835.09
2022-07-29T01:59:47.458Z,101839.50
2022-07-29T02:02:17.272Z,101836.84
2022-07-29T02:04:46.530Z,101833.34
2022-07-29T02:07:17.814Z,101831.53
2022-07-29T02:09:46.651Z,101829.75
2022-07-29T02:12:16.425Z,101827.97
2022-07-29T02:14:48.350Z,101824.47
2022-07-29T02:17:33.723Z,101825.31
2022-07-29T02:20:04.330Z,101831.41
2022-07-29T02:22:34.378Z,101828.75
2022-07-29T02:25:02.045Z,101820.91
2022-07-29T02:27:31.782Z,101818.19
2022-07-29T02:30:01.287Z,101819.91
2022-07-29T02:32:29.413Z,101818.19
2022-07-29T02:34:57.482Z,101815.44
2022-07-29T02:37:25.633Z,101814.56
2022-07-29T02:39:54.787Z,101813.69
2022-07-29T02:42:23.652Z,101815.44
2022-07-29T02:44:50.625Z,101811.00
2022-07-29T02:47:25.102Z,101815.44
2022-07-29T02:50:12.511Z,101816.34
2022-07-29T02:52:50.190Z,101817.19
2022-07-29T02:55:26.030Z,101809.41
2022-07-29T02:58:01.424Z,101808.47
2022-07-29T03:00:30.775Z,101806.69
2022-07-29T03:03:00.935Z,101808.41
2022-07-29T03:05:28.370Z,101811.97
2022-07-29T03:08:06.355Z,101803.19
2022-07-29T03:10:34.038Z,101806.63
2022-07-29T03:13:01.807Z,101795.25
2022-07-29T03:15:28.731Z,101797.03
2022-07-29T03:17:56.482Z,101783.88
2022-07-29T03:20:23.222Z,101796.31
2022-07-29T03:22:49.905Z,101798.94
2022-07-29T03:25:20.967Z,101793.59
2022-07-29T03:27:48.597Z,101798.09
2022-07-29T03:30:18.370Z,101801.47
2022-07-29T03:32:48.582Z,101804.97
2022-07-29T03:35:17.460Z,101795.25
2022-07-29T03:37:44.824Z,101800.53
2022-07-29T03:40:15.545Z,101800.53
2022-07-29T03:42:44.257Z,101791.66
2022-07-29T03:45:18.461Z,101785.47
2022-07-29T03:47:52.867Z,101788.13
2022-07-29T03:50:22.352Z,101788.97
2022-07-29T03:52:49.551Z,101791.63
2022-07-29T03:55:16.858Z,101792.47
2022-07-29T03:57:45.941Z,101795.97
2022-07-29T04:00:13.093Z,101793.28
2022-07-29T04:02:40.876Z,101790.63
2022-07-29T04:05:13.115Z,101788.84
2022-07-29T04:07:39.535Z,101784.41
2022-07-29T04:10:06.605Z,101784.41
2022-07-29T04:12:33.037Z,101791.41
2022-07-29T04:14:59.478Z,101794.94
2022-07-29T04:17:25.909Z,101797.56
2022-07-29T04:19:52.331Z,101789.56
2022-07-29T04:22:18.739Z,101792.13
2022-07-29T04:24:45.214Z,101786.75
2022-07-29T04:27:11.762Z,101793.75
2022-07-29T04:29:38.192Z,101792.78
2022-07-29T04:32:23.648Z,101793.59
2022-07-29T04:34:50.084Z,101790.03
2022-07-29T04:37:16.529Z,101791.75
2022-07-29T04:39:43.146Z,101786.47
2022-07-29T04:42:09.703Z,101786.31
2022-07-29T04:44:37.182Z,101785.47
2022-07-29T04:47:09.041Z,101781.78
2022-07-29T04:49:35.437Z,101787.72
2022-07-29T04:52:02.050Z,101783.28
2022-07-29T04:54:28.505Z,101794.56
2022-07-29T04:56:54.975Z,101792.78
2022-07-29T04:59:21.389Z,101788.22
2022-07-29T05:01:47.879Z,101792.41
2022-07-29T05:04:14.689Z,101796.66
2022-07-29T05:06:41.291Z,101790.31
2022-07-29T05:09:07.868Z,101787.53
2022-07-29T05:11:34.341Z,101802.34
2022-07-29T05:14:00.836Z,101790.66
2022-07-29T05:16:28.662Z,101798.41
2022-07-29T05:18:55.131Z,101803.44
2022-07-29T05:21:21.569Z,101804.13
2022-07-29T05:23:48.189Z,101801.34
2022-07-29T05:26:14.616Z,101802.03
2022-07-29T05:28:41.182Z,101794.84
2022-07-29T05:31:07.657Z,101799.19
2022-07-29T05:33:36.889Z,101799.97
2022-07-29T05:36:07.693Z,101796.28
2022-07-29T05:38:35.345Z,101795.09
2022-07-29T05:41:01.774Z,101809.91
2022-07-29T05:43:29.152Z,101815.09
2022-07-29T05:45:56.067Z,101813.06
2022-07-29T05:48:22.601Z,101807.69
2022-07-29T05:50:49.198Z,101811.09
2022-07-29T05:53:19.372Z,101812.66
2022-07-29T05:55:48.165Z,101808.09
2022-07-29T05:58:14.673Z,101807.03
2022-07-29T06:00:41.176Z,101809.41
2022-07-29T06:03:07.622Z,101807.47
2022-07-29T06:05:34.147Z,101804.56
2022-07-29T06:08:00.719Z,101807.00
2022-07-29T06:10:27.867Z,101805.06
2022-07-29T06:12:54.788Z,101800.34
2022-07-29T06:15:21.283Z,101800.06
2022-07-29T06:18:00.020Z,101796.25
2022-07-29T06:20:30.637Z,101795.16
2022-07-29T06:22:57.665Z,101801.16
2022-07-29T06:25:24.256Z,101803.53
2022-07-29T06:27:50.712Z,101795.28
2022-07-29T06:30:17.236Z,101799.44
2022-07-29T06:32:43.681Z,101794.16
2022-07-29T06:35:37.738Z,101800.16
2022-07-29T06:37:56.791Z,101793.72
2022-07-29T06:40:44.731Z,101792.53
2022-07-29T06:43:11.706Z,101801.06
2022-07-29T06:45:42.047Z,101791.09
2022-07-29T06:48:08.854Z,101789.91
2022-07-29T06:50:35.521Z,101797.88
2022-07-29T06:53:02.175Z,101790.78
2022-07-29T06:55:28.770Z,101793.66
2022-07-29T06:57:55.399Z,101792.56
2022-07-29T07:00:21.840Z,101791.56
2022-07-29T07:02:48.781Z,101782.59
2022-07-29T07:05:15.464Z,101781.66
2022-07-29T07:07:41.877Z,101790.34
2022-07-29T07:10:08.768Z,101780.41
2022-07-29T07:12:35.284Z,101783.75
2022-07-29T07:15:01.884Z,101787.13
2022-07-29T07:17:28.312Z,101780.59
2022-07-29T07:19:56.321Z,101777.56
2022-07-29T07:22:22.773Z,101779.75
2022-07-29T07:24:49.268Z,101779.19
2022-07-29T07:27:15.695Z,101775.13
2022-07-29T07:29:44.200Z,101774.56
2022-07-29T07:32:11.104Z,101767.75
2022-07-29T07:34:38.830Z,101771.78
2022-07-29T07:37:05.919Z,101763.50
2022-07-29T07:39:32.571Z,101768.53
2022-07-29T07:41:59.144Z,101776.28
2022-07-29T07:44:25.639Z,101765.28
2022-07-29T07:46:52.120Z,101766.03
2022-07-29T07:49:19.860Z,101764.84
2022-07-29T07:51:50.833Z,101762.78
2022-07-29T07:54:18.902Z,101761.78
2022-07-29T07:56:49.774Z,101760.56
2022-07-29T07:59:18.797Z,101759.78
2022-07-29T08:01:47.981Z,101759.88
2022-07-29T08:04:26.882Z,101767.78
2022-07-29T08:06:57.975Z,101761.59
2022-07-29T08:09:30.320Z,101763.53
2022-07-29T08:11:59.389Z,101764.59
2022-07-29T08:14:25.999Z,101762.97
2022-07-29T08:16:52.629Z,101764.00
2022-07-29T08:19:19.441Z,101756.16
2022-07-29T08:21:46.239Z,101764.16
2022-07-29T08:24:31.668Z,101761.66
2022-07-29T08:26:58.264Z,101759.09
2022-07-29T08:29:24.984Z,101749.44
2022-07-29T08:31:51.817Z,101752.19
2022-07-29T08:34:18.610Z,101751.16
2022-07-29T08:36:50.983Z,101749.34
2022-07-29T08:39:18.004Z,101759.97
2022-07-29T08:41:56.734Z,101757.31
2022-07-29T08:44:30.400Z,101758.25
2022-07-29T08:46:57.732Z,101764.41
2022-07-29T08:49:24.198Z,101769.47
2022-07-29T08:51:51.630Z,101756.06
2022-07-29T08:54:19.437Z,101747.88
2022-07-29T08:56:50.082Z,101753.63
2022-07-29T08:59:17.680Z,101745.22
2022-07-29T09:01:48.865Z,101743.84
2022-07-29T09:04:16.892Z,101741.59
2022-07-29T09:06:45.793Z,101745.34
2022-07-29T09:09:14.594Z,101740.09
2022-07-29T09:11:42.156Z,101737.34
2022-07-29T09:14:08.681Z,101738.91
2022-07-29T09:16:56.290Z,101733.91
2022-07-29T09:19:45.464Z,101725.53
2022-07-29T09:22:13.140Z,101729.66
2022-07-29T09:24:48.371Z,101730.69
2022-07-29T09:27:26.830Z,101725.47
2022-07-29T09:30:00.112Z,101723.75
2022-07-29T09:32:27.537Z,101719.41
2022-07-29T09:35:17.237Z,101725.22
2022-07-29T09:37:45.398Z,101723.09
2022-07-29T09:40:13.889Z,101719.03
2022-07-29T09:42:40.413Z,101709.94
2022-07-29T09:45:07.960Z,101719.03
2022-07-29T09:47:47.885Z,101713.06
2022-07-29T09:50:14.973Z,101722.44
2022-07-29T09:52:53.185Z,101728.88
2022-07-29T09:55:20.433Z,101729.94
2022-07-29T09:57:47.889Z,101719.03
2022-07-29T10:00:19.789Z,101722.75
2022-07-29T10:02:47.616Z,101719.16
2022-07-29T10:05:22.811Z,101733.34
2022-07-29T10:07:54.098Z,101727.19
2022-07-29T10:10:49.793Z,101723.91
2022-07-29T10:13:16.800Z,101723.03
2022-07-29T10:15:46.718Z,101721.59
2022-07-29T10:18:15.105Z,101716.03
2022-07-29T10:20:42.319Z,101717.63
2022-07-29T10:23:10.028Z,101710.19
2022-07-29T10:25:37.211Z,101707.44
2022-07-29T10:28:03.911Z,101697.06
2022-07-29T10:30:31.873Z,101703.69
2022-07-29T10:33:15.868Z,101690.44
2022-07-29T10:35:50.507Z,101699.00
2022-07-29T10:38:34.911Z,101694.25
2022-07-29T10:41:43.811Z,101691.56
2022-07-29T10:44:22.885Z,101690.69
2022-07-29T10:46:51.947Z,101691.59
2022-07-29T10:52:10.601Z,101685.25
2022-07-29T10:54:37.335Z,101691.69
2022-07-29T10:57:25.797Z,101687.19
2022-07-29T11:00:11.881Z,101693.78
2022-07-29T11:02:45.765Z,101684.31
2022-07-29T11:05:19.580Z,101688.38
2022-07-29T11:08:19.523Z,101678.19
2022-07-29T11:10:47.985Z,101683.94
2022-07-29T11:13:44.538Z,101677.22
2022-07-29T11:16:13.746Z,101673.06
2022-07-29T11:19:14.092Z,101674.81
2022-07-29T11:21:53.732Z,101677.22
2022-07-29T11:24:31.771Z,101671.19
2022-07-29T11:27:23.198Z,101669.78
2022-07-29T11:29:55.730Z,101668.06
2022-07-29T11:32:25.138Z,101661.69
2022-07-29T11:35:37.886Z,101650.38
2022-07-29T11:38:29.206Z,101642.13
2022-07-29T11:41:16.800Z,101647.53
2022-07-29T11:43:50.666Z,101645.06
2022-07-29T11:46:39.169Z,101639.50
2022-07-29T11:49:09.245Z,101637.47
2022-07-29T11:51:38.303Z,101639.47
2022-07-29T11:54:27.442Z,101633.91
2022-07-29T11:56:54.344Z,101642.75
2022-07-29T11:59:21.958Z,101636.47
2022-07-29T12:02:12.126Z,101623.94
2022-07-29T12:04:56.071Z,101635.47
2022-07-29T12:07:35.290Z,101623.34
2022-07-29T12:10:03.062Z,101618.88
2022-07-29T12:12:29.617Z,101613.88
2022-07-29T12:14:56.255Z,101608.69
2022-07-29T12:17:41.723Z,101599.28
2022-07-29T12:20:09.116Z,101603.38
2022-07-29T12:22:41.973Z,101605.75
2022-07-29T12:25:32.507Z,101599.50
2022-07-29T12:28:07.796Z,101596.63
2022-07-29T12:30:40.490Z,101588.88
2022-07-29T12:33:37.406Z,101592.59
2022-07-29T12:36:10.388Z,101589.34
2022-07-29T12:38:41.686Z,101594.19
2022-07-29T12:41:08.238Z,101579.44
2022-07-29T12:43:34.654Z,101591.66
2022-07-29T12:46:15.796Z,101584.06
2022-07-29T12:48:44.253Z,101579.84
2022-07-29T12:51:12.710Z,101589.00
2022-07-29T12:53:39.954Z,101592.97
2022-07-29T12:56:26.560Z,101593.56
2022-07-29T12:58:53.951Z,101600.34
2022-07-29T13:01:21.855Z,101596.31
2022-07-29T13:03:55.791Z,101601.59
2022-07-29T13:06:46.168Z,101594.06
2022-07-29T13:09:20.220Z,101594.28
2022-07-29T13:11:49.173Z,101587.94
2022-07-29T13:14:38.242Z,101592.47
2022-07-29T13:17:14.017Z,101589.84
2022-07-29T13:19:48.622Z,101584.47
2022-07-29T13:22:20.375Z,101589.81
2022-07-29T13:24:54.279Z,101584.84
2022-07-29T13:27:25.997Z,101594.25
2022-07-29T13:29:53.840Z,101588.94
2022-07-29T13:32:28.392Z,101580.44
2022-07-29T13:34:56.718Z,101582.31
2022-07-29T13:37:23.139Z,101582.84
2022-07-29T13:39:52.829Z,101589.56
2022-07-29T13:42:19.948Z,101575.53
2022-07-29T13:44:46.372Z,101584.09
2022-07-29T13:47:13.702Z,101589.22
2022-07-29T13:49:40.134Z,101597.88
2022-07-29T13:52:08.439Z,101596.31
2022-07-29T13:54:42.030Z,101598.28
2022-07-29T13:57:09.402Z,101596.75
2022-07-29T13:59:36.069Z,101599.28
2022-07-29T14:02:03.057Z,101604.22
2022-07-29T14:04:29.737Z,101597.13
2022-07-29T14:06:56.247Z,101607.53
2022-07-29T14:09:22.675Z,101599.75
2022-07-29T14:11:51.033Z,101601.00
2022-07-29T14:14:17.993Z,101592.47
2022-07-29T14:16:47.880Z,101591.72
2022-07-29T14:19:18.040Z,101597.59
2022-07-29T14:21:45.575Z,101591.38
2022-07-29T14:24:15.004Z,101592.38
2022-07-29T14:26:46.347Z,101598.47
2022-07-29T14:29:13.320Z,101593.34
2022-07-29T14:31:39.820Z,101589.78
2022-07-29T14:34:06.409Z,101591.13
2022-07-29T14:36:33.087Z,101597.69
2022-07-29T14:38:59.544Z,101596.88
2022-07-29T14:41:29.035Z,101591.56
2022-07-29T14:43:55.521Z,101582.31
2022-07-29T14:46:22.061Z,101581.81
2022-07-29T14:48:48.782Z,101588.03
2022-07-29T14:51:15.379Z,101579.41
2022-07-29T14:53:41.908Z,101578.22
2022-07-29T14:56:34.980Z,101577.50
2022-07-29T14:58:54.879Z,101571.28
2022-07-29T15:01:21.326Z,101567.47
2022-07-29T15:03:47.937Z,101576.72
2022-07-29T15:06:14.391Z,101567.41
2022-07-29T15:08:40.991Z,101573.53
2022-07-29T15:11:07.618Z,101573.25
2022-07-29T15:13:35.187Z,101575.94
2022-07-29T15:16:01.599Z,101573.06
2022-07-29T15:18:28.171Z,101568.47
2022-07-29T15:20:54.605Z,101559.22
2022-07-29T15:23:22.239Z,101565.09
2022-07-29T15:25:48.700Z,101566.34
2022-07-29T15:28:15.225Z,101561.59
2022-07-29T15:30:41.906Z,101551.47
2022-07-29T15:33:10.353Z,101559.88
2022-07-29T15:35:40.125Z,101555.50
2022-07-29T15:38:07.427Z,101557.59
2022-07-29T15:40:34.264Z,101560.56
2022-07-29T15:43:06.335Z,101549.13
2022-07-29T15:45:41.017Z,101552.44
2022-07-29T15:48:08.824Z,101550.97
2022-07-29T15:50:35.774Z,101554.88
2022-07-29T15:53:03.099Z,101549.53
2022-07-29T15:55:29.698Z,101559.88
2022-07-29T15:58:00.270Z,101556.56
2022-07-29T16:00:27.362Z,101560.09
2022-07-29T16:02:53.838Z,101546.59
2022-07-29T16:05:20.268Z,101550.00
2022-07-29T16:07:46.665Z,101549.03
2022-07-29T16:10:13.294Z,101548.03
2022-07-29T16:12:39.741Z,101548.78
2022-07-29T16:15:09.864Z,101545.63
2022-07-29T16:17:37.780Z,101547.19
2022-07-29T16:20:05.749Z,101542.66
2022-07-29T16:22:32.212Z,101544.16
2022-07-29T16:24:58.741Z,101533.78
2022-07-29T16:27:37.429Z,101537.78
2022-07-29T16:30:08.239Z,101535.47
2022-07-29T16:32:34.697Z,101540.34
2022-07-29T16:35:02.691Z,101533.41
2022-07-29T16:37:33.419Z,101538.13
2022-07-29T16:39:59.927Z,101531.19
2022-07-29T16:42:45.413Z,101536.44
2022-07-29T16:45:12.811Z,101534.59
2022-07-29T16:47:39.286Z,101525.38
2022-07-29T16:50:06.237Z,101522.44
2022-07-29T16:52:32.719Z,101530.16
2022-07-29T16:54:59.131Z,101530.75
2022-07-29T16:57:25.527Z,101539.13
2022-07-29T16:59:52.132Z,101531.56
2022-07-29T17:02:18.607Z,101532.91
2022-07-29T17:04:45.077Z,101528.72
2022-07-29T17:07:11.668Z,101530.06
2022-07-29T17:09:38.185Z,101529.44
2022-07-29T17:12:05.278Z,101535.88
2022-07-29T17:14:31.712Z,101537.31
2022-07-29T17:17:02.368Z,101528.03
2022-07-29T17:19:34.011Z,101532.25
2022-07-29T17:22:19.439Z,101526.97
2022-07-29T17:24:47.185Z,101529.00
2022-07-29T17:27:13.732Z,101520.09
2022-07-29T17:29:40.820Z,101532.44
2022-07-29T17:32:09.320Z,101527.66
2022-07-29T17:34:37.185Z,101530.75
2022-07-29T17:37:05.513Z,101536.47
2022-07-29T17:39:32.753Z,101545.41
2022-07-29T17:41:59.590Z,101537.41
2022-07-29T17:44:26.068Z,101534.00
2022-07-29T17:46:52.619Z,101534.53
2022-07-29T17:49:19.193Z,101543.53
2022-07-29T17:51:45.955Z,101546.06
2022-07-29T17:54:12.504Z,101544.38
2022-07-29T17:56:38.930Z,101542.44
2022-07-29T17:59:09.973Z,101540.72
2022-07-29T18:01:38.110Z,101550.56
2022-07-29T18:04:04.644Z,101540.22
2022-07-29T18:06:31.155Z,101540.34
2022-07-29T18:08:57.673Z,101542.38
2022-07-29T18:11:24.209Z,101533.72
2022-07-29T18:13:51.029Z,101527.94
2022-07-29T18:16:17.941Z,101526.53
2022-07-29T18:18:45.295Z,101523.97
2022-07-29T18:21:11.893Z,101514.47
2022-07-29T18:23:38.704Z,101515.78
2022-07-29T18:26:05.325Z,101521.41
2022-07-29T18:28:34.474Z,101518.13
2022-07-29T18:31:01.152Z,101513.94
2022-07-29T18:33:27.866Z,101513.44
2022-07-29T18:36:11.109Z,101517.25
2022-07-29T18:38:39.772Z,101521.97
2022-07-29T18:41:06.321Z,101525.69
2022-07-29T18:43:32.804Z,101518.03
2022-07-29T18:45:59.292Z,101518.13
2022-07-29T18:48:25.790Z,101519.28
2022-07-29T18:50:52.432Z,101507.25
2022-07-29T18:53:19.135Z,101516.19
2022-07-29T18:55:45.708Z,101515.56
2022-07-29T18:58:12.149Z,101513.97
2022-07-29T19:00:38.972Z,101511.44
2022-07-29T19:03:05.524Z,101518.72
2022-07-29T19:05:32.578Z,101513.59
2022-07-29T19:07:59.470Z,101512.94
2022-07-29T19:10:26.726Z,101519.56
2022-07-29T19:12:54.329Z,101521.56
2022-07-29T19:15:20.839Z,101532.44
2022-07-29T19:17:48.473Z,101530.94
2022-07-29T19:20:15.897Z,101535.63
2022-07-29T19:22:42.566Z,101538.50
2022-07-29T19:25:09.972Z,101538.81
2022-07-29T19:27:36.414Z,101547.78
2022-07-29T19:30:06.004Z,101547.88
2022-07-29T19:32:32.481Z,101554.16
2022-07-29T19:35:17.423Z,101556.06
2022-07-29T19:37:43.851Z,101551.69
2022-07-29T19:40:12.089Z,101558.09
2022-07-29T19:42:38.651Z,101564.47
2022-07-29T19:45:05.635Z,101564.56
2022-07-29T19:47:32.043Z,101558.59
2022-07-29T19:50:00.573Z,101550.81
2022-07-29T19:52:27.446Z,101558.88
2022-07-29T19:54:53.910Z,101555.47
2022-07-29T19:57:20.643Z,101555.66
2022-07-29T19:59:47.003Z,101555.84
2022-07-29T20:02:13.707Z,101559.56
2022-07-29T20:04:48.437Z,101556.16
2022-07-29T20:07:14.994Z,101557.19
2022-07-29T20:09:42.284Z,101548.41
2022-07-29T20:12:09.795Z,101553.00
2022-07-29T20:14:36.931Z,101554.16
2022-07-29T20:17:04.625Z,101550.72
2022-07-29T20:19:32.180Z,101539.31
2022-07-29T20:21:59.009Z,101541.22
2022-07-29T20:24:25.714Z,101543.16
2022-07-29T20:26:52.385Z,101549.72
2022-07-29T20:29:18.883Z,101545.44
2022-07-29T20:31:45.704Z,101553.50
2022-07-29T20:34:19.961Z,101547.31
2022-07-29T20:36:48.617Z,101536.78
2022-07-29T20:39:15.214Z,101549.25
2022-07-29T20:41:41.609Z,101549.13
2022-07-29T20:44:08.202Z,101543.81
2022-07-29T20:46:34.696Z,101554.47
2022-07-29T20:49:01.315Z,101557.13
2022-07-29T20:51:27.785Z,101553.44
2022-07-29T20:53:54.204Z,101556.09
2022-07-29T20:56:20.642Z,101554.28
2022-07-29T20:58:47.059Z,101550.78
2022-07-29T21:01:13.675Z,101556.00
2022-07-29T21:03:40.089Z,101556.97
2022-07-29T21:06:07.716Z,101557.81
2022-07-29T21:08:34.157Z,101555.16
2022-07-29T21:11:00.769Z,101555.25
2022-07-29T21:13:27.705Z,101549.13
2022-07-29T21:15:58.631Z,101556.28
2022-07-29T21:18:32.577Z,101564.28
2022-07-29T21:21:00.741Z,101562.47
2022-07-29T21:23:27.861Z,101559.03
2022-07-29T21:25:54.909Z,101563.63
2022-07-29T21:28:27.422Z,101562.66
2022-07-29T21:30:54.786Z,101555.63
2022-07-29T21:33:21.504Z,101567.13
2022-07-29T21:38:34.885Z,101561.06
2022-07-29T21:41:02.451Z,101556.75
2022-07-29T21:43:29.204Z,101560.38
2022-07-29T21:45:56.635Z,101557.81
2022-07-29T21:48:24.920Z,101559.72
2022-07-29T21:50:52.201Z,101556.38
2022-07-29T21:53:22.081Z,101557.34
2022-07-29T21:55:54.259Z,101562.78
2022-07-29T21:58:22.884Z,101567.50
2022-07-29T22:00:49.412Z,101548.22
2022-07-29T22:03:16.372Z,101557.34
2022-07-29T22:05:42.953Z,101555.63
2022-07-29T22:08:09.606Z,101555.84
2022-07-29T22:10:36.271Z,101548.03
2022-07-29T22:13:03.309Z,101557.91
2022-07-29T22:15:30.276Z,101558.75
2022-07-29T22:17:57.000Z,101561.53
2022-07-29T22:20:24.130Z,101559.81
2022-07-29T22:22:50.543Z,101548.22
2022-07-29T22:25:17.830Z,101550.13
2022-07-29T22:27:44.359Z,101551.06
2022-07-29T22:30:11.292Z,101549.28
2022-07-29T22:32:37.778Z,101540.31
2022-07-29T22:35:05.223Z,101551.72
2022-07-29T22:37:31.629Z,101553.38
2022-07-29T22:39:58.009Z,101554.28
2022-07-29T22:42:24.525Z,101554.41
2022-07-29T22:44:51.228Z,101555.34
2022-07-29T22:47:17.645Z,101556.19
2022-07-29T22:50:04.481Z,101550.03
2022-07-29T22:52:30.929Z,101551.06
2022-07-29T22:54:57.459Z,101537.00
2022-07-29T22:57:24.091Z,101545.97
2022-07-29T22:59:50.624Z,101543.34
2022-07-29T23:02:17.194Z,101536.28
2022-07-29T23:04:43.692Z,101539.84
2022-07-29T23:07:10.158Z,101541.81
2022-07-29T23:09:36.767Z,101533.09
2022-07-29T23:12:03.415Z,101538.41
2022-07-29T23:14:29.833Z,101534.97
2022-07-29T23:16:56.311Z,101535.16
2022-07-29T23:19:22.921Z,101539.81
2022-07-29T23:21:49.310Z,101532.88
2022-07-29T23:24:15.712Z,101526.78
2022-07-29T23:26:42.212Z,101538.47
2022-07-29T23:29:08.622Z,101537.63
2022-07-29T23:31:35.896Z,101536.69
2022-07-29T23:34:08.474Z,101541.03
2022-07-29T23:36:34.916Z,101539.25
2022-07-29T23:39:01.468Z,101530.50
2022-07-29T23:41:31.667Z,101540.28
2022-07-29T23:43:58.064Z,101533.22
2022-07-29T23:46:24.597Z,101529.81
2022-07-29T23:48:51.120Z,101540.34
2022-07-29T23:51:17.568Z,101536.19
2022-07-29T23:53:53.263Z,101539.91
2022-07-29T23:56:20.872Z,101537.31
2022-07-29T23:58:47.522Z,101543.56
